createdAt,value
2022-10-28T00:00:08.056Z,98926.50
2022-10-28T00:03:14.520Z,98921.69
2022-10-28T00:06:23.142Z,98913.34
2022-10-28T00:09:27.809Z,98920.88
2022-10-28T00:12:37.599Z,98925.09
2022-10-28T00:15:43.046Z,98930.91
2022-10-28T00:18:48.371Z,98923.34
2022-10-28T00:21:59.854Z,98916.34
2022-10-28T00:25:04.554Z,98913.66
2022-10-28T00:28:10.924Z,98913.50
2022-10-28T00:31:19.406Z,98909.75
2022-10-28T00:34:24.568Z,98914.84
2022-10-28T00:37:29.517Z,98914.03
2022-10-28T00:40:37.208Z,98919.41
2022-10-28T00:43:47.875Z,98911.81
2022-10-28T00:46:55.282Z,98910.44
2022-10-28T00:50:05.815Z,98910.97
2022-10-28T00:53:16.295Z,98914.19
2022-10-28T00:56:22.575Z,98917.69
2022-10-28T00:59:35.496Z,98915.81
2022-10-28T01:02:45.912Z,98914.78
2022-10-28T01:05:52.684Z,98913.94
2022-10-28T01:08:59.949Z,98920.19
2022-10-28T01:12:14.946Z,98908.63
2022-10-28T01:15:33.416Z,98908.34
2022-10-28T01:18:46.811Z,98911.63
2022-10-28T01:22:13.044Z,98908.97
2022-10-28T01:25:44.238Z,98900.09
2022-10-28T01:29:28.054Z,98898.50
2022-10-28T01:32:45.053Z,98895.81
2022-10-28T01:35:54.101Z,98896.97
2022-10-28T01:39:03.365Z,98895.88
2022-10-28T01:42:22.198Z,98894.03
2022-10-28T01:45:31.181Z,98898.66
2022-10-28T01:48:44.237Z,98896.53
2022-10-28T01:51:52.645Z,98899.53
2022-10-28T01:55:02.558Z,98900.06
2022-10-28T01:58:12.973Z,98890.63
2022-10-28T02:01:19.346Z,98882.28
2022-10-28T02:04:26.370Z,98888.50
2022-10-28T02:07:31.431Z,98891.72
2022-10-28T02:10:44.986Z,98885.28
2022-10-28T02:14:00.887Z,98879.66
2022-10-28T02:17:15.917Z,98887.50
2022-10-28T02:20:34.929Z,98890.22
2022-10-28T02:23:46.835Z,98887.75
2022-10-28T02:26:58.494Z,98886.13
2022-10-28T02:30:07.519Z,98875.84
2022-10-28T02:33:15.599Z,98878.00
2022-10-28T02:36:24.949Z,98880.41
2022-10-28T02:39:34.770Z,98875.53
2022-10-28T02:42:42.955Z,98873.66
2022-10-28T02:45:50.292Z,98869.53
2022-10-28T02:48:58.552Z,98878.69
2022-10-28T02:52:08.140Z,98870.28
2022-10-28T02:55:13.015Z,98865.88
2022-10-28T02:58:18.282Z,98868.28
2022-10-28T03:01:23.510Z,98873.22
2022-10-28T03:04:28.066Z,98876.97
2022-10-28T03:07:35.093Z,98874.56
2022-10-28T03:10:40.561Z,98873.22
2022-10-28T03:13:47.945Z,98870.28
2022-10-28T03:16:54.589Z,98877.59
2022-10-28T03:19:59.462Z,98876.78
2022-10-28T03:23:05.989Z,98877.03
2022-10-28T03:26:10.796Z,98878.88
2022-10-28T03:29:15.902Z,98878.59
2022-10-28T03:35:26.022Z,98878.25
2022-10-28T03:38:32.388Z,98872.56
2022-10-28T03:41:37.938Z,98881.19
2022-10-28T03:44:45.615Z,98883.34
2022-10-28T03:47:50.697Z,98872.03
2022-10-28T03:50:55.912Z,98871.19
2022-10-28T03:54:02.430Z,98863.63
2022-10-28T03:57:07.690Z,98860.41
2022-10-28T04:00:14.330Z,98854.44
2022-10-28T04:03:19.432Z,98848.25
2022-10-28T04:06:24.039Z,98841.28
2022-10-28T04:09:30.228Z,98842.09
2022-10-28T04:12:35.046Z,98854.25
2022-10-28T04:15:40.044Z,98853.66
2022-10-28T04:18:47.244Z,98862.81
2022-10-28T04:21:52.123Z,98855.53
2022-10-28T04:24:58.714Z,98853.13
2022-10-28T04:28:04.016Z,98855.53
2022-10-28T04:31:10.516Z,98853.06
2022-10-28T04:34:15.117Z,98852.25
2022-10-28T04:37:20.754Z,98850.41
2022-10-28T04:40:27.344Z,98843.34
2022-10-28T04:43:32.213Z,98848.69
2022-10-28T04:46:36.886Z,98847.66
2022-10-28T04:49:42.010Z,98847.94
2022-10-28T04:52:47.129Z,98852.81
2022-10-28T04:55:53.788Z,98857.41
2022-10-28T04:58:59.052Z,98855.22
2022-10-28T05:02:04.621Z,98847.41
2022-10-28T05:05:09.665Z,98847.41
2022-10-28T05:08:14.689Z,98849.81
2022-10-28T05:11:21.189Z,98830.41
2022-10-28T05:14:29.575Z,98823.22
2022-10-28T05:17:34.513Z,98819.47
2022-10-28T05:20:39.622Z,98819.75
2022-10-28T05:23:47.515Z,98814.06
2022-10-28T05:26:54.779Z,98813.28
2022-10-28T05:30:01.528Z,98814.81
2022-10-28T05:33:09.678Z,98826.13
2022-10-28T05:36:16.011Z,98815.53
2022-10-28T05:39:21.445Z,98815.59
2022-10-28T05:42:28.936Z,98815.59
2022-10-28T05:45:33.835Z,98813.69
2022-10-28T05:48:39.290Z,98817.25
2022-10-28T05:51:44.324Z,98813.81
2022-10-28T05:54:49.125Z,98816.22
2022-10-28T05:57:58.154Z,98820.50
2022-10-28T06:01:03.364Z,98821.84
2022-10-28T06:04:08.301Z,98812.69
2022-10-28T06:07:13.232Z,98823.78
2022-10-28T06:10:18.232Z,98819.22
2022-10-28T06:13:24.111Z,98819.22
2022-10-28T06:16:28.870Z,98807.91
2022-10-28T06:19:34.015Z,98819.22
2022-10-28T06:22:39.035Z,98817.56
2022-10-28T06:25:44.035Z,98826.72
2022-10-28T06:28:50.643Z,98826.13
2022-10-28T06:31:56.039Z,98830.97
2022-10-28T06:35:02.129Z,98833.34
2022-10-28T06:38:09.229Z,98824.97
2022-10-28T06:41:16.075Z,98826.00
2022-10-28T06:44:22.773Z,98826.69
2022-10-28T06:47:30.852Z,98825.84
2022-10-28T06:50:37.159Z,98819.22
2022-10-28T06:53:42.073Z,98818.06
2022-10-28T06:56:49.529Z,98821.81
2022-10-28T06:59:56.271Z,98818.81
2022-10-28T07:03:03.304Z,98821.53
2022-10-28T07:09:19.951Z,98821.75
2022-10-28T07:12:24.882Z,98819.31
2022-10-28T07:15:33.265Z,98826.03
2022-10-28T07:18:38.436Z,98845.16
2022-10-28T07:21:43.605Z,98858.13
2022-10-28T07:24:49.025Z,98864.88
2022-10-28T07:27:54.410Z,98876.75
2022-10-28T07:31:04.537Z,98870.75
2022-10-28T07:34:09.249Z,98869.97
2022-10-28T07:37:14.741Z,98869.38
2022-10-28T07:40:19.923Z,98872.38
2022-10-28T07:43:25.165Z,98866.94
2022-10-28T07:46:31.679Z,98866.16
2022-10-28T07:49:37.719Z,98859.13
2022-10-28T07:52:42.814Z,98877.47
2022-10-28T07:55:48.015Z,98872.88
2022-10-28T07:58:53.028Z,98879.88
2022-10-28T08:01:59.635Z,98875.00
2022-10-28T08:05:05.820Z,98889.25
2022-10-28T08:08:11.630Z,98871.84
2022-10-28T08:11:19.545Z,98870.41
2022-10-28T08:14:24.475Z,98877.34
2022-10-28T08:17:31.133Z,98883.22
2022-10-28T08:20:35.986Z,98884.72
2022-10-28T08:23:41.972Z,98885.50
2022-10-28T08:26:47.130Z,98884.28
2022-10-28T08:29:53.798Z,98886.13
2022-10-28T08:33:00.398Z,98885.19
2022-10-28T08:36:05.468Z,98880.22
2022-10-28T08:39:10.721Z,98881.53
2022-10-28T08:42:32.377Z,98873.09
2022-10-28T08:45:45.267Z,98869.31
2022-10-28T08:48:52.137Z,98872.72
2022-10-28T08:52:02.350Z,98863.94
2022-10-28T08:55:10.880Z,98866.28
2022-10-28T08:58:22.254Z,98876.13
2022-10-28T09:01:39.585Z,98884.38
2022-10-28T09:04:47.800Z,98883.88
2022-10-28T09:07:53.474Z,98893.66
2022-10-28T09:11:18.019Z,98896.78
2022-10-28T09:14:36.888Z,98909.25
2022-10-28T09:17:51.141Z,98917.78
2022-10-28T09:21:00.310Z,98906.13
2022-10-28T09:24:16.809Z,98901.00
2022-10-28T09:27:33.233Z,98863.16
2022-10-28T09:30:51.922Z,98861.13
2022-10-28T09:34:10.273Z,98847.06
2022-10-28T09:37:22.622Z,98850.56
2022-10-28T09:40:30.356Z,98853.28
2022-10-28T09:43:37.132Z,98875.09
2022-10-28T09:46:43.184Z,98874.38
2022-10-28T09:49:50.438Z,98892.59
2022-10-28T09:53:03.232Z,98877.44
2022-10-28T09:59:17.196Z,98869.56
2022-10-28T10:02:30.016Z,98869.34
2022-10-28T10:05:41.320Z,98865.69
2022-10-28T10:08:48.648Z,98863.91
2022-10-28T10:11:57.126Z,98868.84
2022-10-28T10:15:03.458Z,98866.16
2022-10-28T10:18:17.432Z,98869.44
2022-10-28T10:21:43.385Z,98878.59
2022-10-28T10:24:50.627Z,98876.38
2022-10-28T10:27:58.053Z,98871.84
2022-10-28T10:31:06.639Z,98845.59
2022-10-28T10:34:26.589Z,98830.91
2022-10-28T10:37:37.067Z,98861.84
2022-10-28T10:40:51.079Z,98853.53
2022-10-28T10:43:56.929Z,98855.25
2022-10-28T10:47:25.232Z,98858.56
2022-10-28T10:50:34.558Z,98862.09
2022-10-28T10:53:42.581Z,98856.16
2022-10-28T10:56:49.416Z,98872.16
2022-10-28T10:59:57.035Z,98876.34
2022-10-28T11:03:03.446Z,98874.63
2022-10-28T11:06:23.125Z,98871.66
2022-10-28T11:09:33.824Z,98870.13
2022-10-28T11:12:42.796Z,98853.81
2022-10-28T11:16:01.753Z,98850.69
2022-10-28T11:19:21.580Z,98845.53
2022-10-28T11:22:43.281Z,98839.00
2022-10-28T11:25:51.026Z,98845.91
2022-10-28T11:29:10.748Z,98854.56
2022-10-28T11:32:45.162Z,98853.44
2022-10-28T11:36:12.449Z,98843.69
2022-10-28T11:39:34.015Z,98834.84
2022-10-28T11:42:47.347Z,98824.91
2022-10-28T11:46:05.645Z,98822.34
2022-10-28T11:49:39.600Z,98807.13
2022-10-28T11:52:59.650Z,98776.91
2022-10-28T11:56:12.117Z,98794.09
2022-10-28T11:59:39.753Z,98793.94
2022-10-28T12:03:00.883Z,98810.47
2022-10-28T12:06:17.590Z,98811.59
2022-10-28T12:09:31.466Z,98802.31
2022-10-28T12:12:51.286Z,98810.00
2022-10-28T12:16:02.749Z,98798.75
2022-10-28T12:19:15.117Z,98808.41
2022-10-28T12:22:24.978Z,98815.19
2022-10-28T12:25:33.177Z,98805.00
2022-10-28T12:28:44.076Z,98812.56
2022-10-28T12:31:54.117Z,98806.31
2022-10-28T12:35:05.229Z,98784.09
2022-10-28T12:38:17.323Z,98784.53
2022-10-28T12:41:25.871Z,98772.72
2022-10-28T12:44:31.621Z,98759.97
2022-10-28T12:47:44.161Z,98764.63
2022-10-28T12:50:55.115Z,98773.47
2022-10-28T12:54:05.716Z,98782.09
2022-10-28T12:57:15.145Z,98769.41
2022-10-28T13:00:24.205Z,98768.41
2022-10-28T13:03:29.629Z,98772.31
2022-10-28T13:07:09.339Z,98764.44
2022-10-28T13:10:25.459Z,98776.88
2022-10-28T13:13:51.756Z,98786.31
2022-10-28T13:17:18.281Z,98760.88
2022-10-28T13:20:32.513Z,98768.34
2022-10-28T13:23:43.120Z,98770.31
2022-10-28T13:26:51.856Z,98770.22
2022-10-28T13:30:01.086Z,98770.97
2022-10-28T13:33:09.141Z,98758.31
2022-10-28T13:36:20.750Z,98759.66
2022-10-28T13:39:27.743Z,98752.56
2022-10-28T13:46:15.878Z,98751.19
2022-10-28T13:49:38.868Z,98758.13
2022-10-28T13:52:54.920Z,98756.63
2022-10-28T13:56:23.127Z,98759.44
2022-10-28T13:59:37.476Z,98751.19
2022-10-28T14:03:02.978Z,98759.28
2022-10-28T14:06:17.617Z,98756.09
2022-10-28T14:09:31.102Z,98755.69
2022-10-28T14:12:57.138Z,98760.34
2022-10-28T14:16:29.605Z,98761.66
2022-10-28T14:19:39.900Z,98766.31
2022-10-28T14:22:55.303Z,98767.94
2022-10-28T14:26:09.029Z,98772.28
2022-10-28T14:29:32.190Z,98771.66
2022-10-28T14:33:04.883Z,98776.50
2022-10-28T14:40:05.119Z,98777.47
2022-10-28T14:44:00.413Z,98784.53
2022-10-28T14:47:28.359Z,98790.44
2022-10-28T14:50:51.980Z,98783.25
2022-10-28T14:54:05.798Z,98788.50
2022-10-28T14:57:27.123Z,98787.22
2022-10-28T15:00:49.066Z,98781.63
2022-10-28T15:04:15.297Z,98781.13
2022-10-28T15:07:27.909Z,98776.16
2022-10-28T15:10:44.616Z,98776.94
2022-10-28T15:14:01.111Z,98768.13
2022-10-28T15:17:18.893Z,98776.13
2022-10-28T15:20:29.051Z,98770.53
2022-10-28T15:23:36.356Z,98769.56
2022-10-28T15:26:51.185Z,98765.69
2022-10-28T15:30:02.588Z,98761.81
2022-10-28T15:33:24.894Z,98760.66
2022-10-28T15:36:36.468Z,98761.75
2022-10-28T15:39:43.108Z,98765.25
2022-10-28T15:43:01.934Z,98759.28
2022-10-28T15:46:25.187Z,98758.59
2022-10-28T15:49:48.472Z,98754.41
2022-10-28T15:52:58.071Z,98753.75
2022-10-28T15:56:26.608Z,98753.91
2022-10-28T15:59:35.947Z,98748.91
2022-10-28T16:02:56.532Z,98755.25
2022-10-28T16:06:03.106Z,98753.00
2022-10-28T16:09:19.936Z,98759.19
2022-10-28T16:12:33.890Z,98767.44
2022-10-28T16:15:48.862Z,98771.41
2022-10-28T16:19:06.916Z,98768.19
2022-10-28T16:22:22.327Z,98771.00
2022-10-28T16:25:33.565Z,98774.03
2022-10-28T16:28:45.502Z,98768.13
2022-10-28T16:31:56.265Z,98765.03
2022-10-28T16:35:24.971Z,98771.38
2022-10-28T16:38:31.807Z,98774.22
2022-10-28T16:41:42.151Z,98784.09
2022-10-28T16:44:59.839Z,98784.19
2022-10-28T16:48:16.492Z,98787.34
2022-10-28T16:51:28.316Z,98793.69
2022-10-28T16:54:43.425Z,98794.41
2022-10-28T16:57:58.256Z,98800.44
2022-10-28T17:01:09.555Z,98811.41
2022-10-28T17:04:27.770Z,98813.41
2022-10-28T17:07:42.822Z,98816.25
2022-10-28T17:10:51.163Z,98815.25
2022-10-28T17:14:00.638Z,98809.13
2022-10-28T17:17:11.747Z,98805.47
2022-10-28T17:20:33.477Z,98811.63
2022-10-28T17:23:44.935Z,98805.09
2022-10-28T17:26:58.148Z,98802.56
2022-10-28T17:30:10.324Z,98806.78
2022-10-28T17:33:17.568Z,98804.47
2022-10-28T17:36:26.681Z,98811.31
2022-10-28T17:39:45.222Z,98804.47
2022-10-28T17:42:54.570Z,98819.78
2022-10-28T17:46:11.592Z,98825.31
2022-10-28T17:49:23.693Z,98822.59
2022-10-28T17:52:43.887Z,98840.53
2022-10-28T17:56:17.480Z,98835.28
2022-10-28T17:59:28.377Z,98836.97
2022-10-28T18:02:37.268Z,98845.47
2022-10-28T18:05:56.988Z,98839.09
2022-10-28T18:09:19.253Z,98840.47
2022-10-28T18:12:40.080Z,98836.78
2022-10-28T18:15:55.211Z,98833.59
2022-10-28T18:19:08.853Z,98836.72
2022-10-28T18:22:23.627Z,98838.91
2022-10-28T18:25:31.865Z,98832.25
2022-10-28T18:28:41.377Z,98836.91
2022-10-28T18:31:55.415Z,98831.06
2022-10-28T18:35:11.750Z,98836.03
2022-10-28T18:38:29.669Z,98835.22
2022-10-28T18:41:42.994Z,98841.50
2022-10-28T18:45:00.805Z,98839.69
2022-10-28T18:48:09.169Z,98844.06
2022-10-28T18:51:18.635Z,98841.94
2022-10-28T18:54:25.462Z,98844.94
2022-10-28T18:57:33.526Z,98849.00
2022-10-28T19:00:42.064Z,98839.88
2022-10-28T19:03:51.823Z,98844.50
2022-10-28T19:07:00.796Z,98845.88
2022-10-28T19:10:09.913Z,98844.03
2022-10-28T19:13:27.695Z,98849.13
2022-10-28T19:16:43.375Z,98849.38
2022-10-28T19:19:51.552Z,98841.81
2022-10-28T19:22:58.481Z,98840.78
2022-10-28T19:26:28.732Z,98842.19
2022-10-28T19:29:54.391Z,98837.94
2022-10-28T19:33:15.715Z,98827.91
2022-10-28T19:37:23.265Z,98834.47
2022-10-28T19:40:46.472Z,98831.25
2022-10-28T19:44:02.688Z,98839.09
2022-10-28T19:47:12.780Z,98835.88
2022-10-28T19:50:38.373Z,98838.88
2022-10-28T19:54:09.023Z,98845.63
2022-10-28T19:57:20.993Z,98848.31
2022-10-28T20:00:30.157Z,98848.31
2022-10-28T20:03:49.246Z,98843.44
2022-10-28T20:10:25.617Z,98855.09
2022-10-28T20:13:39.001Z,98848.94
2022-10-28T20:16:47.525Z,98861.19
2022-10-28T20:19:55.756Z,98865.56
2022-10-28T20:27:28.496Z,98863.84
2022-10-28T20:30:35.772Z,98866.84
2022-10-28T20:33:46.784Z,98867.94
2022-10-28T20:36:54.143Z,98875.25
2022-10-28T20:40:06.295Z,98871.50
2022-10-28T20:43:24.258Z,98878.25
2022-10-28T20:46:34.046Z,98880.72
2022-10-28T20:49:45.110Z,98880.50
2022-10-28T20:52:54.476Z,98879.22
2022-10-28T20:56:04.309Z,98880.56
2022-10-28T20:59:14.790Z,98882.22
2022-10-28T21:02:29.181Z,98886.25
2022-10-28T21:05:37.942Z,98886.28
2022-10-28T21:08:48.931Z,98886.28
2022-10-28T21:11:56.181Z,98880.13
2022-10-28T21:15:04.430Z,98884.75
2022-10-28T21:18:15.146Z,98889.63
2022-10-28T21:21:24.829Z,98884.00
2022-10-28T21:24:33.680Z,98891.56
2022-10-28T21:27:40.635Z,98891.31
2022-10-28T21:30:51.017Z,98896.16
2022-10-28T21:34:02.975Z,98904.81
2022-10-28T21:37:13.248Z,98909.16
2022-10-28T21:40:25.553Z,98909.13
2022-10-28T21:43:34.626Z,98913.97
2022-10-28T21:46:42.226Z,98908.34
2022-10-28T21:49:48.519Z,98910.50
2022-10-28T21:52:57.527Z,98914.56
2022-10-28T21:56:18.823Z,98908.63
2022-10-28T21:59:24.496Z,98916.47
2022-10-28T22:02:32.929Z,98907.28
2022-10-28T22:05:52.898Z,98912.41
2022-10-28T22:09:03.834Z,98906.47
2022-10-28T22:12:11.308Z,98912.69
2022-10-28T22:15:17.150Z,98904.06
2022-10-28T22:18:29.747Z,98907.03
2022-10-28T22:21:51.553Z,98905.69
2022-10-28T22:25:14.136Z,98902.72
2022-10-28T22:28:37.967Z,98924.84
2022-10-28T22:31:47.822Z,98929.44
2022-10-28T22:34:57.317Z,98927.81
2022-10-28T22:38:06.542Z,98930.00
2022-10-28T22:41:16.216Z,98933.50
2022-10-28T22:44:28.447Z,98926.81
2022-10-28T22:47:39.553Z,98923.56
2022-10-28T22:50:48.586Z,98936.50
2022-10-28T22:53:56.593Z,98932.78
2022-10-28T22:57:04.847Z,98934.13
2022-10-28T23:00:12.703Z,98937.34
2022-10-28T23:03:18.646Z,98939.81
2022-10-28T23:06:30.186Z,98936.84
2022-10-28T23:09:38.213Z,98933.63
2022-10-28T23:12:44.522Z,98936.91
2022-10-28T23:15:51.798Z,98936.91
2022-10-28T23:18:58.624Z,98933.41
2022-10-28T23:22:11.835Z,98938.03
2022-10-28T23:25:18.554Z,98934.50
2022-10-28T23:28:27.070Z,98942.88
2022-10-28T23:31:33.218Z,98945.56
2022-10-28T23:34:39.565Z,98952.59
2022-10-28T23:37:48.418Z,98941.84
2022-10-28T23:40:59.273Z,98934.81
2022-10-28T23:44:05.629Z,98938.91
2022-10-28T23:47:11.584Z,98944.81
2022-10-28T23:50:21.538Z,98938.88
2022-10-28T23:53:31.591Z,98947.78
2022-10-28T23:56:39.227Z,98936.75
2022-10-28T23:59:45.290Z,98936.75
